createdAt,value
2018-04-19T00:01:58.864Z,17.73
2018-04-19T00:04:27.210Z,16.57
2018-04-19T00:06:54.795Z,17.30
2018-04-19T00:09:23.140Z,16.53
2018-04-19T00:11:50.726Z,16.20
2018-04-19T00:14:19.083Z,17.07
2018-04-19T00:16:46.663Z,17.07
2018-04-19T00:19:15.045Z,17.13
2018-04-19T00:21:43.388Z,15.77
2018-04-19T00:24:11.007Z,15.20
2018-04-19T00:26:38.616Z,16.23
2018-04-19T00:29:06.231Z,15.47
2018-04-19T00:31:33.844Z,16.20
2018-04-19T00:34:01.423Z,16.23
2018-04-19T00:36:29.771Z,15.97
2018-04-19T00:38:57.355Z,16.07
2018-04-19T00:41:25.744Z,15.60
2018-04-19T00:43:53.324Z,15.63
2018-04-19T00:46:20.914Z,16.00
2018-04-19T00:48:48.496Z,15.70
2018-04-19T00:51:16.852Z,15.90
2018-04-19T00:53:44.482Z,15.00
2018-04-19T00:56:12.056Z,14.90
2018-04-19T00:58:39.636Z,15.90
2018-04-19T01:01:07.231Z,15.27
2018-04-19T01:03:34.819Z,15.27
2018-04-19T01:06:02.405Z,15.43
2018-04-19T01:08:29.987Z,15.17
2018-04-19T01:10:58.378Z,15.20
2018-04-19T01:13:25.995Z,14.80
2018-04-19T01:15:53.575Z,14.10
2018-04-19T01:18:21.937Z,15.13
2018-04-19T01:20:50.379Z,15.70
2018-04-19T01:23:17.971Z,14.77
2018-04-19T01:25:45.583Z,16.00
2018-04-19T01:28:13.155Z,14.87
2018-04-19T01:30:40.731Z,14.83
2018-04-19T01:33:08.312Z,15.00
2018-04-19T01:35:47.634Z,15.60
2018-04-19T01:38:15.221Z,14.50
2018-04-19T01:40:43.564Z,14.53
2018-04-19T01:43:11.185Z,14.03
2018-04-19T01:45:38.771Z,14.07
2018-04-19T01:48:06.356Z,13.70
2018-04-19T01:50:33.979Z,14.23
2018-04-19T01:53:01.567Z,14.30
2018-04-19T01:55:30.007Z,15.03
2018-04-19T01:57:57.588Z,14.23
2018-04-19T02:00:25.165Z,13.27
2018-04-19T02:02:52.747Z,14.13
2018-04-19T02:05:21.088Z,14.07
2018-04-19T02:07:48.672Z,13.70
2018-04-19T02:10:17.049Z,13.73
2018-04-19T02:12:45.470Z,13.37
2018-04-19T02:15:13.052Z,13.47
2018-04-19T02:17:40.637Z,13.30
2018-04-19T02:20:08.988Z,12.97
2018-04-19T02:22:36.563Z,13.53
2018-04-19T02:25:04.147Z,13.37
2018-04-19T02:27:31.731Z,13.47
2018-04-19T02:29:59.316Z,12.87
2018-04-19T02:32:26.903Z,12.43
2018-04-19T02:34:55.251Z,13.50
2018-04-19T02:37:23.596Z,13.30
2018-04-19T02:39:51.181Z,13.93
2018-04-19T02:42:18.775Z,12.97
2018-04-19T02:44:47.129Z,12.70
2018-04-19T02:47:14.716Z,13.23
2018-04-19T02:49:43.064Z,12.93
2018-04-19T02:52:10.681Z,12.70
2018-04-19T02:54:38.266Z,12.97
2018-04-19T02:57:05.839Z,12.57
2018-04-19T02:59:33.456Z,12.50
2018-04-19T03:02:01.033Z,12.23
2018-04-19T03:04:29.379Z,11.97
2018-04-19T03:06:56.962Z,12.70
2018-04-19T03:09:24.546Z,11.87
2018-04-19T03:11:52.128Z,12.90
2018-04-19T03:14:20.472Z,12.70
2018-04-19T03:16:48.060Z,12.07
2018-04-19T03:19:16.446Z,11.20
2018-04-19T03:21:44.795Z,12.00
2018-04-19T03:24:12.368Z,12.10
2018-04-19T03:26:40.719Z,12.83
2018-04-19T03:29:08.331Z,12.33
2018-04-19T03:31:35.907Z,11.70
2018-04-19T03:34:03.487Z,11.97
2018-04-19T03:36:31.111Z,11.77
2018-04-19T03:38:58.688Z,11.57
2018-04-19T03:41:26.271Z,12.27
2018-04-19T03:43:53.860Z,12.07
2018-04-19T03:46:22.206Z,11.97
2018-04-19T03:48:49.787Z,11.93
2018-04-19T03:51:18.136Z,12.27
2018-04-19T03:53:45.720Z,11.60
2018-04-19T03:56:14.077Z,12.10
2018-04-19T03:58:41.667Z,11.80
2018-04-19T04:01:10.032Z,11.13
2018-04-19T04:03:38.396Z,11.83
2018-04-19T04:06:05.991Z,11.60
2018-04-19T04:08:33.588Z,11.30
2018-04-19T04:11:01.174Z,11.10
2018-04-19T04:13:28.759Z,11.73
2018-04-19T04:15:57.100Z,11.30
2018-04-19T04:18:36.608Z,11.03
2018-04-19T04:21:20.664Z,10.53
2018-04-19T04:23:54.331Z,11.03
2018-04-19T04:26:22.140Z,10.93
2018-04-19T04:28:49.728Z,11.73
2018-04-19T04:31:18.186Z,11.03
2018-04-19T04:33:45.764Z,11.30
2018-04-19T04:36:14.107Z,11.37
2018-04-19T04:38:41.792Z,11.30
2018-04-19T04:41:10.160Z,11.23
2018-04-19T04:51:09.833Z,10.30
2018-04-19T04:53:37.453Z,10.73
2018-04-19T04:56:05.088Z,10.40
2018-04-19T04:58:32.679Z,10.63
2018-04-19T05:01:00.264Z,10.93
2018-04-19T05:03:28.600Z,9.80
2018-04-19T05:05:56.267Z,10.90
2018-04-19T05:08:23.939Z,10.37
2018-04-19T05:10:51.525Z,10.60
2018-04-19T05:13:19.910Z,10.33
2018-04-19T05:15:48.258Z,10.47
2018-04-19T05:18:16.623Z,10.20
2018-04-19T05:20:44.215Z,9.37
2018-04-19T05:23:12.552Z,8.73
2018-04-19T05:25:40.140Z,9.03
2018-04-19T05:28:08.495Z,8.60
2018-04-19T05:30:36.105Z,8.30
2018-04-19T05:33:03.693Z,10.10
2018-04-19T05:35:31.271Z,10.70
2018-04-19T05:37:58.851Z,11.37
2018-04-19T05:40:27.205Z,12.53
2018-04-19T05:42:54.784Z,14.37
2018-04-19T05:45:22.363Z,15.10
2018-04-19T05:47:50.712Z,15.23
2018-04-19T05:50:19.908Z,15.67
2018-04-19T05:52:47.532Z,17.07
2018-04-19T05:55:15.108Z,19.77
2018-04-19T05:57:42.723Z,23.30
2018-04-19T06:00:11.061Z,25.67
2018-04-19T06:02:38.647Z,30.13
2018-04-19T06:05:06.997Z,32.80
2018-04-19T06:07:34.579Z,35.73
2018-04-19T06:10:02.932Z,39.97
2018-04-19T06:12:30.511Z,38.13
2018-04-19T06:14:58.088Z,39.87
2018-04-19T06:17:26.445Z,42.57
2018-04-19T06:19:54.060Z,41.67
2018-04-19T06:22:21.675Z,47.37
2018-04-19T06:24:50.022Z,42.10
2018-04-19T06:27:17.603Z,43.53
2018-04-19T06:29:45.948Z,45.33
2018-04-19T06:32:13.555Z,43.03
2018-04-19T06:34:41.901Z,41.67
2018-04-19T06:37:09.532Z,40.90
2018-04-19T06:39:37.156Z,41.40
2018-04-19T06:42:04.743Z,39.00
2018-04-19T06:44:32.356Z,37.17
2018-04-19T06:47:00.753Z,37.47
2018-04-19T06:49:28.328Z,38.50
2018-04-19T06:51:55.908Z,36.97
2018-04-19T06:54:23.486Z,36.10
2018-04-19T06:56:51.073Z,32.03
2018-04-19T06:59:19.418Z,31.97
2018-04-19T07:01:46.995Z,33.73
2018-04-19T07:04:15.337Z,32.07
2018-04-19T07:06:42.912Z,30.90
2018-04-19T07:09:10.523Z,29.83
2018-04-19T07:11:38.135Z,32.00
2018-04-19T07:14:05.725Z,32.37
2018-04-19T07:16:33.313Z,30.70
2018-04-19T07:19:00.886Z,30.80
2018-04-19T07:21:28.466Z,28.73
2018-04-19T07:23:56.043Z,30.00
2018-04-19T07:26:24.389Z,25.20
2018-04-19T07:28:51.980Z,27.07
2018-04-19T07:31:20.364Z,26.73
2018-04-19T07:33:48.739Z,26.10
2018-04-19T07:36:17.135Z,27.37
2018-04-19T07:38:44.716Z,33.67
2018-04-19T07:41:12.297Z,28.77
2018-04-19T07:43:40.673Z,30.47
2018-04-19T07:46:08.314Z,31.43
2018-04-19T07:48:35.903Z,30.27
2018-04-19T07:51:03.522Z,31.37
2018-04-19T07:53:31.107Z,30.73
2018-04-19T07:55:58.732Z,30.57
2018-04-19T07:58:26.387Z,29.50
2018-04-19T08:00:53.964Z,29.13
2018-04-19T08:03:21.583Z,25.30
2018-04-19T08:05:49.924Z,26.13
2018-04-19T08:08:17.510Z,28.37
2018-04-19T08:10:45.852Z,28.10
2018-04-19T08:13:13.436Z,28.23
2018-04-19T08:15:41.086Z,27.90
2018-04-19T08:18:08.675Z,27.27
2018-04-19T08:20:37.024Z,26.23
2018-04-19T08:23:04.608Z,26.30
2018-04-19T08:25:32.192Z,25.03
2018-04-19T08:27:59.772Z,24.73
2018-04-19T08:30:27.354Z,22.80
2018-04-19T08:32:54.936Z,21.47
2018-04-19T08:35:23.296Z,20.23
2018-04-19T08:37:51.655Z,18.03
2018-04-19T08:40:19.237Z,18.03
2018-04-19T08:42:47.588Z,15.37
2018-04-19T08:45:15.168Z,15.27
2018-04-19T08:47:42.752Z,14.27
2018-04-19T08:50:10.374Z,12.87
2018-04-19T08:52:37.939Z,10.77
2018-04-19T08:55:05.527Z,11.10
2018-04-19T08:57:33.108Z,10.13
2018-04-19T09:00:00.685Z,9.17
2018-04-19T09:02:28.283Z,8.53
2018-04-19T09:04:56.668Z,7.20
2018-04-19T09:07:25.008Z,6.93
2018-04-19T09:09:52.620Z,7.03
2018-04-19T09:12:20.192Z,6.23
2018-04-19T09:14:47.797Z,6.10
2018-04-19T09:17:15.370Z,6.20
2018-04-19T09:19:43.713Z,5.60
2018-04-19T09:22:11.291Z,5.50
2018-04-19T09:24:39.647Z,5.63
2018-04-19T09:27:07.251Z,5.27
2018-04-19T09:29:35.628Z,4.87
2018-04-19T09:32:03.964Z,4.60
2018-04-19T09:34:31.536Z,4.67
2018-04-19T09:36:59.112Z,4.93
2018-04-19T09:39:27.490Z,4.50
2018-04-19T09:41:55.051Z,4.57
2018-04-19T09:44:23.389Z,4.20
2018-04-19T09:46:50.960Z,4.40
2018-04-19T09:49:18.532Z,4.30
2018-04-19T09:51:46.871Z,3.93
2018-04-19T09:54:14.596Z,3.97
2018-04-19T09:56:56.801Z,3.67
2018-04-19T09:59:24.378Z,3.53
2018-04-19T10:01:51.985Z,3.77
2018-04-19T10:04:25.879Z,3.80
2018-04-19T10:06:53.465Z,3.33
2018-04-19T10:09:21.807Z,3.03
2018-04-19T10:11:49.383Z,3.17
2018-04-19T10:14:17.736Z,2.50
2018-04-19T10:16:45.321Z,2.80
2018-04-19T10:19:13.719Z,2.30
2018-04-19T10:21:41.292Z,2.67
2018-04-19T10:24:08.864Z,3.27
2018-04-19T10:26:36.439Z,3.37
2018-04-19T10:29:04.009Z,3.27
2018-04-19T10:31:31.583Z,4.40
2018-04-19T10:33:59.152Z,4.80
2018-04-19T10:36:27.495Z,4.80
2018-04-19T10:38:55.073Z,4.30
2018-04-19T10:41:22.650Z,5.10
2018-04-19T10:43:50.997Z,5.07
2018-04-19T10:46:18.579Z,5.97
2018-04-19T10:48:46.924Z,6.50
2018-04-19T10:51:14.527Z,6.47
2018-04-19T10:53:42.872Z,6.37
2018-04-19T10:56:10.456Z,6.30
2018-04-19T10:58:38.795Z,5.60
2018-04-19T11:01:06.371Z,5.50
2018-04-19T11:03:34.766Z,5.20
2018-04-19T11:06:03.145Z,4.77
2018-04-19T11:08:31.499Z,4.50
2018-04-19T11:10:59.854Z,4.67
2018-04-19T11:13:27.428Z,5.07
2018-04-19T11:15:55.065Z,5.10
2018-04-19T11:18:22.643Z,4.47
2018-04-19T11:20:50.220Z,4.43
2018-04-19T11:23:18.564Z,4.13
2018-04-19T11:25:46.144Z,4.20
2018-04-19T11:28:13.760Z,4.40
2018-04-19T11:30:41.336Z,4.40
2018-04-19T11:33:08.910Z,5.07
2018-04-19T11:35:36.487Z,4.90
2018-04-19T11:38:04.865Z,4.10
2018-04-19T11:40:33.208Z,4.47
2018-04-19T11:43:00.802Z,4.00
2018-04-19T11:45:29.171Z,3.73
2018-04-19T11:47:57.569Z,3.67
2018-04-19T11:50:25.885Z,4.27
2018-04-19T11:52:53.469Z,3.10
2018-04-19T11:55:21.070Z,3.53
2018-04-19T11:57:48.650Z,3.40
2018-04-19T12:00:16.231Z,3.30
2018-04-19T12:02:43.868Z,3.20
2018-04-19T12:05:11.469Z,3.43
2018-04-19T12:07:39.837Z,3.37
2018-04-19T12:10:07.444Z,3.50
2018-04-19T12:12:35.025Z,3.67
2018-04-19T12:15:02.603Z,3.30
2018-04-19T12:17:30.177Z,3.43
2018-04-19T12:19:57.797Z,4.57
2018-04-19T12:22:25.367Z,3.77
2018-04-19T12:24:52.939Z,3.90
2018-04-19T12:27:20.518Z,3.90
2018-04-19T12:29:48.089Z,3.90
2018-04-19T12:32:16.469Z,3.70
2018-04-19T12:34:48.768Z,4.10
2018-04-19T12:37:16.343Z,3.67
2018-04-19T12:39:43.916Z,3.50
2018-04-19T12:42:11.491Z,3.13
2018-04-19T12:44:39.084Z,3.33
2018-04-19T12:47:06.656Z,3.40
2018-04-19T12:49:34.264Z,3.30
2018-04-19T12:52:01.848Z,3.30
2018-04-19T12:54:30.184Z,3.10
2018-04-19T12:56:57.756Z,2.80
2018-04-19T12:59:25.336Z,2.77
2018-04-19T13:01:53.682Z,2.77
2018-04-19T13:04:21.308Z,3.07
2018-04-19T13:06:48.888Z,2.70
2018-04-19T13:09:16.460Z,2.93
2018-04-19T13:11:44.034Z,3.00
2018-04-19T13:14:11.607Z,2.83
2018-04-19T13:16:39.947Z,3.00
2018-04-19T13:19:07.516Z,3.70
2018-04-19T13:21:35.093Z,4.03
2018-04-19T13:24:10.859Z,4.70
2018-04-19T13:26:39.207Z,3.80
2018-04-19T13:29:06.800Z,4.43
2018-04-19T13:31:35.135Z,3.80
2018-04-19T13:34:02.741Z,3.67
2018-04-19T13:36:30.320Z,3.77
2018-04-19T13:38:58.655Z,3.10
2018-04-19T13:41:26.264Z,3.30
2018-04-19T13:43:53.847Z,3.30
2018-04-19T13:46:21.420Z,3.03
2018-04-19T13:48:49.008Z,3.47
2018-04-19T13:51:16.615Z,3.43
2018-04-19T13:53:44.267Z,3.10
2018-04-19T13:56:11.936Z,3.20
2018-04-19T13:58:39.522Z,3.47
2018-04-19T14:01:07.148Z,3.37
2018-04-19T14:03:34.764Z,3.17
2018-04-19T14:06:02.348Z,3.47
2018-04-19T14:08:30.727Z,2.50
2018-04-19T14:10:59.065Z,3.50
2018-04-19T14:13:26.635Z,4.30
2018-04-19T14:15:54.210Z,4.17
2018-04-19T14:18:22.549Z,3.77
2018-04-19T14:20:50.179Z,4.20
2018-04-19T14:23:17.764Z,3.70
2018-04-19T14:25:45.344Z,3.40
2018-04-19T14:28:12.955Z,3.70
2018-04-19T14:30:41.320Z,4.93
2018-04-19T14:33:08.940Z,5.23
2018-04-19T14:35:36.540Z,5.57
2018-04-19T14:38:04.117Z,6.20
2018-04-19T14:40:31.709Z,5.03
2018-04-19T14:42:59.291Z,5.20
2018-04-19T14:45:26.900Z,5.03
2018-04-19T14:47:54.492Z,4.70
2018-04-19T14:50:22.136Z,4.67
2018-04-19T14:52:50.232Z,4.13
2018-04-19T14:55:18.802Z,3.67
2018-04-19T14:57:52.568Z,3.93
2018-04-19T15:00:20.148Z,3.73
2018-04-19T15:02:47.732Z,3.50
2018-04-19T15:05:17.247Z,3.27
2018-04-19T15:07:47.419Z,3.40
2018-04-19T15:10:15.301Z,3.40
2018-04-19T15:12:43.508Z,3.50
2018-04-19T15:15:12.229Z,3.20
2018-04-19T15:17:39.832Z,3.00
2018-04-19T15:20:07.697Z,3.07
2018-04-19T15:22:35.287Z,2.73
2018-04-19T15:25:02.929Z,2.67
2018-04-19T15:27:30.544Z,2.80
2018-04-19T15:29:58.556Z,3.17
2018-04-19T15:32:27.158Z,3.20
2018-04-19T15:34:54.771Z,2.73
2018-04-19T15:37:22.435Z,2.83
2018-04-19T15:39:50.068Z,2.87
2018-04-19T15:42:18.403Z,2.90
2018-04-19T15:44:45.996Z,2.73
2018-04-19T15:47:13.580Z,2.63
2018-04-19T15:49:41.192Z,3.03
2018-04-19T15:52:08.777Z,2.70
2018-04-19T15:54:36.357Z,2.37
2018-04-19T15:57:03.941Z,2.70
2018-04-19T15:59:31.561Z,2.73
2018-04-19T16:02:00.001Z,2.67
2018-04-19T16:04:27.515Z,3.00
2018-04-19T16:06:55.538Z,2.90
2018-04-19T16:09:23.123Z,2.90
2018-04-19T16:11:53.081Z,2.40
2018-04-19T16:14:18.338Z,3.03
2018-04-19T16:16:45.931Z,2.70
2018-04-19T16:19:13.505Z,2.97
2018-04-19T16:21:41.076Z,2.70
2018-04-19T16:24:08.652Z,3.00
2018-04-19T16:26:37.023Z,2.60
2018-04-19T16:29:05.365Z,2.53
2018-04-19T16:31:32.944Z,2.77
2018-04-19T16:34:00.520Z,2.70
2018-04-19T16:36:28.873Z,3.10
2018-04-19T16:38:56.456Z,2.67
2018-04-19T16:41:24.024Z,2.90
2018-04-19T16:43:52.359Z,2.90
2018-04-19T16:46:19.927Z,2.77
2018-04-19T16:48:47.499Z,2.80
2018-04-19T16:51:15.068Z,3.40
2018-04-19T16:53:43.404Z,3.03
2018-04-19T16:56:11.015Z,3.10
2018-04-19T16:58:39.355Z,3.17
2018-04-19T17:01:07.005Z,2.50
2018-04-19T17:03:34.576Z,2.90
2018-04-19T17:06:02.191Z,3.20
2018-04-19T17:08:29.792Z,3.10
2018-04-19T17:10:57.376Z,2.83
2018-04-19T17:13:25.714Z,3.30
2018-04-19T17:15:53.288Z,3.07
2018-04-19T17:18:20.863Z,3.27
2018-04-19T17:20:49.239Z,2.70
2018-04-19T17:23:16.800Z,3.10
2018-04-19T17:25:45.148Z,3.30
2018-04-19T17:28:12.778Z,3.27
2018-04-19T17:30:40.352Z,3.20
2018-04-19T17:33:07.943Z,3.00
2018-04-19T17:35:36.291Z,3.10
2018-04-19T17:38:03.868Z,3.30
2018-04-19T17:40:31.499Z,3.47
2018-04-19T17:42:59.075Z,2.67
2018-04-19T17:45:26.688Z,3.30
2018-04-19T17:47:54.264Z,3.60
2018-04-19T17:50:21.841Z,3.30
2018-04-19T17:52:49.448Z,3.10
2018-04-19T17:55:17.788Z,3.27
2018-04-19T17:57:45.393Z,3.27
2018-04-19T18:00:12.972Z,2.90
2018-04-19T18:02:40.544Z,3.13
2018-04-19T18:05:08.115Z,3.10
2018-04-19T18:07:35.688Z,3.10
2018-04-19T18:10:03.255Z,2.90
2018-04-19T18:12:31.636Z,3.10
2018-04-19T18:14:59.983Z,3.10
2018-04-19T18:17:27.567Z,2.90
2018-04-19T18:19:55.912Z,2.73
2018-04-19T18:22:23.490Z,2.90
2018-04-19T18:24:51.060Z,3.10
2018-04-19T18:27:19.401Z,2.93
2018-04-19T18:29:46.980Z,2.80
2018-04-19T18:32:14.555Z,2.90
2018-04-19T18:34:42.926Z,3.23
2018-04-19T18:37:11.273Z,2.97
2018-04-19T18:39:38.997Z,3.00
2018-04-19T18:42:06.585Z,3.17
2018-04-19T18:44:34.172Z,2.93
2018-04-19T18:47:01.745Z,2.73
2018-04-19T18:49:30.088Z,3.27
2018-04-19T18:51:57.660Z,2.90
2018-04-19T18:54:25.257Z,2.77
2018-04-19T18:56:52.845Z,2.83
2018-04-19T18:59:20.424Z,3.20
2018-04-19T19:01:47.996Z,2.97
2018-04-19T19:04:15.640Z,3.43
2018-04-19T19:06:43.253Z,3.80
2018-04-19T19:09:10.837Z,4.17
2018-04-19T19:11:39.191Z,5.10
2018-04-19T19:14:06.771Z,4.53
2018-04-19T19:16:34.481Z,6.33
2018-04-19T19:19:13.858Z,7.00
2018-04-19T19:21:41.447Z,7.97
2018-04-19T19:24:09.031Z,10.07
2018-04-19T19:26:36.712Z,9.63
2018-04-19T19:29:04.366Z,10.40
2018-04-19T19:31:32.000Z,9.70
2018-04-19T19:33:59.586Z,10.00
2018-04-19T19:36:27.936Z,11.60
2018-04-19T19:38:55.704Z,10.67
2018-04-19T19:41:23.524Z,11.10
2018-04-19T19:43:51.141Z,11.63
2018-04-19T19:46:18.776Z,11.27
2018-04-19T19:48:47.323Z,10.83
2018-04-19T19:51:15.006Z,10.00
2018-04-19T19:53:42.802Z,10.53
2018-04-19T19:56:10.433Z,11.50
2018-04-19T19:58:38.103Z,11.57
2018-04-19T20:01:05.795Z,11.57
2018-04-19T20:03:33.750Z,12.40
2018-04-19T20:06:01.403Z,12.60
2018-04-19T20:08:29.752Z,13.33
2018-04-19T20:10:57.393Z,14.07
2018-04-19T20:13:25.012Z,13.67
2018-04-19T20:15:52.680Z,14.80
2018-04-19T20:18:20.267Z,15.30
2018-04-19T20:20:47.860Z,15.47
2018-04-19T20:23:15.584Z,15.30
2018-04-19T20:25:43.196Z,16.80
2018-04-19T20:28:11.541Z,15.53
2018-04-19T20:30:39.123Z,16.83
2018-04-19T20:33:06.763Z,18.53
2018-04-19T20:35:34.506Z,19.33
2018-04-19T20:38:02.851Z,18.73
2018-04-19T20:40:30.626Z,20.50
2018-04-19T20:42:58.255Z,21.50
2018-04-19T20:45:25.832Z,20.27
2018-04-19T20:47:53.425Z,19.03
2018-04-19T20:50:21.058Z,18.63
2018-04-19T20:52:48.652Z,18.60
2018-04-19T20:55:16.235Z,18.30
2018-04-19T20:57:43.928Z,22.63
2018-04-19T21:00:11.575Z,23.20
2018-04-19T21:02:39.183Z,22.63
2018-04-19T21:05:07.534Z,20.30
2018-04-19T21:07:35.141Z,16.97
2018-04-19T21:10:03.580Z,16.27
2018-04-19T21:12:31.343Z,16.73
2018-04-19T21:14:59.005Z,17.53
2018-04-19T21:17:26.607Z,14.97
2018-04-19T21:19:54.234Z,15.00
2018-04-19T21:22:21.816Z,15.20
2018-04-19T21:24:49.480Z,14.33
2018-04-19T21:27:17.095Z,16.20
2018-04-19T21:29:44.680Z,15.90
2018-04-19T21:32:13.060Z,15.93
2018-04-19T21:34:41.403Z,15.70
2018-04-19T21:37:08.987Z,14.67
2018-04-19T21:39:37.340Z,20.13
2018-04-19T21:42:04.989Z,21.20
2018-04-19T21:44:32.532Z,21.57
2018-04-19T21:47:00.116Z,19.87
2018-04-19T21:49:27.708Z,20.13
2018-04-19T21:51:56.062Z,21.97
2018-04-19T21:54:23.696Z,20.50
2018-04-19T21:56:51.280Z,20.67
2018-04-19T21:59:18.861Z,20.03
2018-04-19T22:01:46.477Z,20.70
2018-04-19T22:04:14.065Z,20.53
2018-04-19T22:06:42.420Z,20.37
2018-04-19T22:09:10.004Z,19.30
2018-04-19T22:11:38.355Z,17.50
2018-04-19T22:14:05.935Z,16.03
2018-04-19T22:16:34.284Z,16.90
2018-04-19T22:19:01.873Z,16.90
2018-04-19T22:21:30.270Z,15.70
2018-04-19T22:23:57.847Z,14.70
2018-04-19T22:26:25.423Z,15.03
2018-04-19T22:28:53.005Z,14.27
2018-04-19T22:31:20.592Z,13.50
2018-04-19T22:33:48.994Z,12.23
2018-04-19T22:36:16.572Z,12.50
2018-04-19T22:38:44.199Z,11.90
2018-04-19T22:41:11.778Z,12.17
2018-04-19T22:43:39.408Z,11.70
2018-04-19T22:46:07.751Z,12.63
2018-04-19T22:48:35.333Z,11.73
2018-04-19T22:51:03.716Z,12.13
2018-04-19T22:53:32.063Z,12.27
2018-04-19T22:55:59.648Z,12.67
2018-04-19T22:58:27.992Z,12.90
2018-04-19T23:00:55.574Z,12.50
2018-04-19T23:03:23.926Z,13.37
2018-04-19T23:05:51.507Z,12.70
2018-04-19T23:08:19.088Z,11.93
2018-04-19T23:10:47.432Z,13.53
2018-04-19T23:13:15.012Z,12.53
2018-04-19T23:15:43.360Z,12.43
2018-04-19T23:18:10.944Z,13.90
2018-04-19T23:20:39.287Z,11.37
2018-04-19T23:23:06.917Z,11.73
2018-04-19T23:25:34.499Z,12.07
2018-04-19T23:28:02.096Z,12.40
2018-04-19T23:30:30.508Z,11.17
2018-04-19T23:32:58.127Z,10.73
2018-04-19T23:35:26.524Z,11.13
2018-04-19T23:37:54.110Z,11.27
2018-04-19T23:40:21.736Z,11.40
2018-04-19T23:42:50.079Z,11.40
2018-04-19T23:45:17.660Z,11.43
2018-04-19T23:47:46.007Z,10.43
2018-04-19T23:50:13.630Z,9.50
2018-04-19T23:52:41.207Z,9.90
2018-04-19T23:55:08.788Z,10.30
2018-04-19T23:57:36.362Z,10.60
